Silverton, CO

3:00 PM MDT on July 05, 2015 (GMT -0600)
Martin House / Silverton CO | | Change Station
CLOSE
Current Station
Personal Weather Station
Location: Silverton, CO
Elevation: 9354 ft
Nearby Weather Stations

Elev 9354 ft 37.82 °N, 107.66 °W | Updated 1 minute ago

Overcast
Overcast
69.8 °F
Feels Like 69.8 °F
N
3.2
Wind Variable Wind from WSW

Today
High -- | Low -- °F
--% Chance of Precip.
Yesterday
High -- | Low -- °F
Precip. -- in
5:54 AM 8:36 PM
Waning Gibbous, 82% visible
Pressure 30.37 in
Visibility 10.0 miles
Clouds Scattered Clouds 3500 ft
Scattered Clouds 4100 ft
Mostly Cloudy 4800 ft
Dew Point 52 °F
Humidity 53%
Rainfall 0.00 in
Snow Depth Not available.
UV 6 out of 12
Pollen .60 out of 12
Air Quality Not available.
Flu Activity Not available.
METAR KTEX 052055Z AUTO 10007KT 10SM VCTS SCT035 SCT041 BKN048 18/11 A3037 RMK AO2 LTG DSNT W THRU N T01770114

More Conditions Fewer Conditions

Pressure 30.37 in
Visibility 10.0 miles
Clouds Scattered Clouds 3500 ft
Scattered Clouds 4100 ft
Mostly Cloudy 4800 ft
Dew Point 52 °F
Humidity 53%
Rainfall 0.00 in
Snow Depth Not available.
UV 6 out of 12
Pollen .60 out of 12
Air Quality Not available.
Flu Activity Not available.
METAR KTEX 052055Z AUTO 10007KT 10SM VCTS SCT035 SCT041 BKN048 18/11 A3037 RMK AO2 LTG DSNT W THRU N T01770114

More Conditions Fewer Conditions

10-Day Weather Forecast

×

Almanac

Astronomy

Jul. 05, 2015 Rise Set
Actual Time
Civil Twilight
Nautical Twilight
Astronomical Twilight
Moon
Length of Visible Light
Length of Day
Tomorrow will be .
, % of the Moon is Illuminated

Today's Extremes

State Highs State Lows

Community

WunderPhotos

Upload Photos

1,835,386 photos uploaded!

WunderBlogs® & News

Nearby

Air Quality

  Air Quality AQ Index Pollutant
Not available.

Snow Depth

Station Depth Elevation

Earthquake Activity

City Distance Mag. Time & Date
Minimum magnitude displayed is 2.5.

Coastal Water Temperatures

Place Temperature

Stations

Nearby Weather Stations

Station Location Temp. Windchill Dew Point Humidity Wind Precip. Elev Updated Type